THT01 BGBW-BGGH
Flight info
| Callsign | THT01 |
|---|---|
| Flight time | 0h 53m |
| Altitude | 28000 |
| Route | OVEDA Y26 NUKRI |
| Aircraft | A333/H-SDE3GHIJ2J3J5M1RVWXY/LB2D1 |
Departure
| Time | 2026-04-27 02:03 |
|---|---|
| Airport | Narsarsuaq Airport (BGBW) |
Arrival
| Time | 2026-04-27 02:57 |
|---|---|
| Airport | Nuuk International Airport (BGGH) |
| Time | Latitude | Longitude | Altitude | Speed | Heading |
|---|---|---|---|---|---|
| 2026-04-27 01:28 | 61.16187 | -45.41941 | -175 ft | 0 kts | 41° |
| 2026-04-27 01:57 | 61.16196 | -45.41925 | 71 ft | 3 kts | 41° |
| 2026-04-27 01:57 | 61.16225 | -45.41870 | 64 ft | 8 kts | 41° |
| 2026-04-27 01:58 | 61.16238 | -45.41847 | 67 ft | 0 kts | 41° |
| 2026-04-27 01:58 | 61.16242 | -45.41839 | 64 ft | 5 kts | 41° |
| 2026-04-27 01:58 | 61.16294 | -45.41744 | 65 ft | 13 kts | 41° |
| 2026-04-27 01:58 | 61.16329 | -45.41681 | 66 ft | 1 kts | 37° |
| 2026-04-27 01:59 | 61.16357 | -45.41657 | 69 ft | 8 kts | 34° |
| 2026-04-27 01:59 | 61.16346 | -45.41562 | 64 ft | 6 kts | 170° |
| 2026-04-27 01:59 | 61.16326 | -45.41638 | 67 ft | 12 kts | 251° |
| 2026-04-27 01:59 | 61.16338 | -45.41828 | 67 ft | 15 kts | 300° |
| 2026-04-27 02:00 | 61.16420 | -45.41940 | 64 ft | 16 kts | 12° |
| 2026-04-27 02:00 | 61.16515 | -45.41785 | 61 ft | 20 kts | 40° |
| 2026-04-27 02:00 | 61.16626 | -45.41589 | 62 ft | 19 kts | 40° |
| 2026-04-27 02:00 | 61.16683 | -45.41485 | 62 ft | 5 kts | 49° |
| 2026-04-27 02:01 | 61.16699 | -45.41428 | 69 ft | 2 kts | 41° |
| 2026-04-27 02:01 | 61.16711 | -45.41446 | 63 ft | 2 kts | 302° |
| 2026-04-27 02:01 | 61.16703 | -45.41467 | 69 ft | 2 kts | 222° |
| 2026-04-27 02:01 | 61.16690 | -45.41482 | 63 ft | 1 kts | 216° |
| 2026-04-27 02:02 | 61.16682 | -45.41494 | 62 ft | 0 kts | 220° |
| 2026-04-27 02:02 | 61.16680 | -45.41498 | 64 ft | 7 kts | 220° |
| 2026-04-27 02:02 | 61.16433 | -45.41926 | 63 ft | 85 kts | 220° |
| 2026-04-27 02:03 | 61.15813 | -45.43024 | 233 ft | 137 kts | 218° |
| 2026-04-27 02:03 | 61.15023 | -45.44329 | 832 ft | 156 kts | 214° |
| 2026-04-27 02:03 | 61.14045 | -45.45654 | 1168 ft | 180 kts | 199° |
| 2026-04-27 02:03 | 61.12723 | -45.45856 | 1459 ft | 203 kts | 181° |
| 2026-04-27 02:04 | 61.11229 | -45.45862 | 1683 ft | 227 kts | 183° |
| 2026-04-27 02:04 | 61.09594 | -45.46447 | 2043 ft | 251 kts | 199° |
| 2026-04-27 02:04 | 61.08005 | -45.48224 | 2449 ft | 271 kts | 220° |
| 2026-04-27 02:04 | 61.06872 | -45.51442 | 2916 ft | 286 kts | 245° |
| 2026-04-27 02:05 | 61.06392 | -45.55614 | 3045 ft | 317 kts | 262° |
| 2026-04-27 02:05 | 61.06312 | -45.60256 | 2966 ft | 321 kts | 268° |
| 2026-04-27 02:05 | 61.06337 | -45.64539 | 2958 ft | 335 kts | 270° |
| 2026-04-27 02:05 | 61.06332 | -45.69288 | 2969 ft | 320 kts | 265° |
| 2026-04-27 02:06 | 61.06043 | -45.73601 | 3049 ft | 287 kts | 257° |
| 2026-04-27 02:06 | 61.05499 | -45.77297 | 3085 ft | 256 kts | 247° |
| 2026-04-27 02:06 | 61.04766 | -45.80652 | 3067 ft | 263 kts | 244° |
| 2026-04-27 02:06 | 61.03950 | -45.84263 | 3114 ft | 295 kts | 244° |
| 2026-04-27 02:07 | 61.03275 | -45.88386 | 3508 ft | 299 kts | 262° |
| 2026-04-27 02:07 | 61.03436 | -45.92270 | 4209 ft | 259 kts | 286° |
| 2026-04-27 02:07 | 61.04005 | -45.95643 | 4940 ft | 248 kts | 288° |
| 2026-04-27 02:07 | 61.04649 | -45.99045 | 5525 ft | 262 kts | 298° |
| 2026-04-27 02:08 | 61.05818 | -46.01985 | 6293 ft | 272 kts | 319° |
| 2026-04-27 02:08 | 61.07316 | -46.04405 | 7202 ft | 274 kts | 320° |
| 2026-04-27 02:08 | 61.08784 | -46.06927 | 8197 ft | 274 kts | 317° |
| 2026-04-27 02:08 | 61.10210 | -46.09581 | 9128 ft | 279 kts | 316° |
| 2026-04-27 02:09 | 61.11638 | -46.12389 | 9865 ft | 288 kts | 314° |
| 2026-04-27 02:09 | 61.13098 | -46.15365 | 10422 ft | 302 kts | 314° |
| 2026-04-27 02:09 | 61.14028 | -46.17256 | 10715 ft | 312 kts | 314° |
| 2026-04-27 02:09 | 61.16293 | -46.21727 | 11268 ft | 336 kts | 315° |
| 2026-04-27 02:10 | 61.17452 | -46.23912 | 11584 ft | 344 kts | 316° |
| 2026-04-27 02:10 | 61.19901 | -46.28236 | 12723 ft | 346 kts | 319° |
| 2026-04-27 02:10 | 61.21140 | -46.30303 | 13320 ft | 346 kts | 320° |
| 2026-04-27 02:10 | 61.23047 | -46.33324 | 14124 ft | 344 kts | 321° |
| 2026-04-27 02:11 | 61.24980 | -46.36301 | 14808 ft | 348 kts | 321° |
| 2026-04-27 02:11 | 61.26955 | -46.39339 | 15197 ft | 359 kts | 321° |
| 2026-04-27 02:11 | 61.28987 | -46.42493 | 15538 ft | 370 kts | 320° |
| 2026-04-27 02:11 | 61.31065 | -46.45780 | 15868 ft | 381 kts | 319° |
| 2026-04-27 02:12 | 61.33158 | -46.49240 | 16376 ft | 382 kts | 318° |
| 2026-04-27 02:12 | 61.35084 | -46.52513 | 18640 ft | 324 kts | 319° |
| 2026-04-27 02:12 | 61.36692 | -46.55174 | 21193 ft | 266 kts | 319° |
| 2026-04-27 02:12 | 61.38109 | -46.57453 | 22295 ft | 262 kts | 317° |
| 2026-04-27 02:13 | 61.39570 | -46.59873 | 22542 ft | 274 kts | 319° |
| 2026-04-27 02:13 | 61.41091 | -46.62376 | 22919 ft | 282 kts | 317° |
| 2026-04-27 02:13 | 61.42631 | -46.65011 | 23264 ft | 290 kts | 317° |
| 2026-04-27 02:13 | 61.44205 | -46.67721 | 23594 ft | 296 kts | 317° |
| 2026-04-27 02:14 | 61.45805 | -46.70501 | 24004 ft | 302 kts | 318° |
| 2026-04-27 02:14 | 61.47427 | -46.73364 | 24351 ft | 308 kts | 318° |
| 2026-04-27 02:14 | 61.49080 | -46.76293 | 24652 ft | 314 kts | 318° |
| 2026-04-27 02:14 | 61.50768 | -46.79287 | 24909 ft | 323 kts | 318° |
| 2026-04-27 02:15 | 61.52500 | -46.82379 | 25152 ft | 331 kts | 317° |
| 2026-04-27 02:15 | 61.54264 | -46.85548 | 25405 ft | 339 kts | 317° |
| 2026-04-27 02:15 | 61.56082 | -46.88831 | 25521 ft | 351 kts | 317° |
| 2026-04-27 02:15 | 61.57963 | -46.92213 | 25619 ft | 362 kts | 318° |
| 2026-04-27 02:16 | 61.59920 | -46.95663 | 25750 ft | 372 kts | 318° |
| 2026-04-27 02:16 | 61.61941 | -46.99170 | 25874 ft | 382 kts | 319° |
| 2026-04-27 02:16 | 61.64021 | -47.02740 | 26042 ft | 390 kts | 319° |
| 2026-04-27 02:16 | 61.66130 | -47.06417 | 26205 ft | 397 kts | 318° |
| 2026-04-27 02:17 | 61.68250 | -47.10226 | 26377 ft | 404 kts | 317° |
| 2026-04-27 02:17 | 61.70386 | -47.14159 | 26562 ft | 411 kts | 317° |
| 2026-04-27 02:17 | 61.72544 | -47.18180 | 26746 ft | 417 kts | 317° |
| 2026-04-27 02:17 | 61.74760 | -47.22204 | 26918 ft | 424 kts | 319° |
| 2026-04-27 02:18 | 61.77028 | -47.26250 | 27092 ft | 430 kts | 319° |
| 2026-04-27 02:18 | 61.79333 | -47.30353 | 27238 ft | 436 kts | 319° |
| 2026-04-27 02:18 | 61.81666 | -47.34522 | 27363 ft | 442 kts | 319° |
| 2026-04-27 02:18 | 61.84018 | -47.38751 | 27382 ft | 445 kts | 318° |
| 2026-04-27 02:19 | 61.86342 | -47.42950 | 27384 ft | 445 kts | 318° |
| 2026-04-27 02:19 | 61.88693 | -47.47218 | 27383 ft | 445 kts | 318° |
| 2026-04-27 02:19 | 61.91040 | -47.51495 | 27383 ft | 445 kts | 318° |
| 2026-04-27 02:19 | 61.93385 | -47.55778 | 27430 ft | 445 kts | 318° |
| 2026-04-27 02:20 | 61.95718 | -47.60049 | 27390 ft | 441 kts | 319° |
| 2026-04-27 02:20 | 61.98042 | -47.64307 | 27422 ft | 441 kts | 318° |
| 2026-04-27 02:20 | 62.00374 | -47.68588 | 27418 ft | 439 kts | 318° |
| 2026-04-27 02:20 | 62.02636 | -47.72754 | 27439 ft | 422 kts | 318° |
| 2026-04-27 02:21 | 62.04873 | -47.76887 | 27439 ft | 430 kts | 318° |
| 2026-04-27 02:21 | 62.07159 | -47.81124 | 27441 ft | 440 kts | 318° |
| 2026-04-27 02:21 | 62.09527 | -47.85331 | 27452 ft | 448 kts | 320° |
| 2026-04-27 02:21 | 62.12051 | -47.89248 | 27512 ft | 448 kts | 322° |
| 2026-04-27 02:22 | 62.14565 | -47.93064 | 27542 ft | 448 kts | 322° |
| 2026-04-27 02:22 | 62.17071 | -47.97021 | 27543 ft | 448 kts | 320° |
| 2026-04-27 02:22 | 62.19530 | -48.01117 | 27569 ft | 447 kts | 320° |
| 2026-04-27 02:22 | 62.21933 | -48.05302 | 27596 ft | 444 kts | 319° |
| 2026-04-27 02:23 | 62.24296 | -48.09547 | 27619 ft | 443 kts | 318° |
| 2026-04-27 02:23 | 62.26644 | -48.13840 | 27620 ft | 444 kts | 317° |
| 2026-04-27 02:23 | 62.28989 | -48.18161 | 27621 ft | 444 kts | 317° |
| 2026-04-27 02:23 | 62.31330 | -48.22485 | 27627 ft | 444 kts | 317° |
| 2026-04-27 02:24 | 62.33668 | -48.26807 | 27650 ft | 444 kts | 318° |
| 2026-04-27 02:24 | 62.36015 | -48.31147 | 27650 ft | 444 kts | 317° |
| 2026-04-27 02:24 | 62.38356 | -48.35477 | 27653 ft | 444 kts | 317° |
| 2026-04-27 02:24 | 62.40699 | -48.39818 | 27653 ft | 444 kts | 317° |
| 2026-04-27 02:25 | 62.43041 | -48.44162 | 27710 ft | 444 kts | 318° |
| 2026-04-27 02:25 | 62.45370 | -48.48491 | 27745 ft | 440 kts | 318° |
| 2026-04-27 02:25 | 62.47684 | -48.52801 | 27757 ft | 439 kts | 318° |
| 2026-04-27 02:25 | 62.49969 | -48.57065 | 27757 ft | 439 kts | 317° |
| 2026-04-27 02:26 | 62.52282 | -48.61392 | 27784 ft | 440 kts | 318° |
| 2026-04-27 02:26 | 62.54594 | -48.65729 | 27791 ft | 440 kts | 317° |
| 2026-04-27 02:26 | 62.56903 | -48.70068 | 27789 ft | 440 kts | 317° |
| 2026-04-27 02:26 | 62.59212 | -48.74417 | 27791 ft | 440 kts | 317° |
| 2026-04-27 02:27 | 62.61522 | -48.78771 | 27821 ft | 440 kts | 317° |
| 2026-04-27 02:27 | 62.63830 | -48.83134 | 27819 ft | 440 kts | 317° |
| 2026-04-27 02:27 | 62.66138 | -48.87508 | 27822 ft | 440 kts | 317° |
| 2026-04-27 02:27 | 62.68443 | -48.91887 | 27821 ft | 440 kts | 317° |
| 2026-04-27 02:28 | 62.70745 | -48.96267 | 27821 ft | 440 kts | 317° |
| 2026-04-27 02:28 | 62.73047 | -49.00658 | 27851 ft | 440 kts | 317° |
| 2026-04-27 02:28 | 62.75350 | -49.05058 | 27853 ft | 440 kts | 317° |
| 2026-04-27 02:28 | 62.77651 | -49.09464 | 27851 ft | 440 kts | 317° |
| 2026-04-27 02:29 | 62.79949 | -49.13874 | 27859 ft | 440 kts | 317° |
| 2026-04-27 02:29 | 62.82247 | -49.18293 | 27859 ft | 439 kts | 317° |
| 2026-04-27 02:29 | 62.84505 | -49.22642 | 27757 ft | 424 kts | 317° |
| 2026-04-27 02:29 | 62.86677 | -49.26834 | 27631 ft | 408 kts | 317° |
| 2026-04-27 02:30 | 62.88767 | -49.30877 | 27141 ft | 395 kts | 317° |
| 2026-04-27 02:30 | 62.90828 | -49.34877 | 26333 ft | 398 kts | 317° |
| 2026-04-27 02:30 | 62.92921 | -49.38947 | 25248 ft | 405 kts | 317° |
| 2026-04-27 02:30 | 62.95023 | -49.43047 | 24166 ft | 402 kts | 318° |
| 2026-04-27 02:31 | 62.97084 | -49.47069 | 23075 ft | 390 kts | 318° |
| 2026-04-27 02:31 | 62.99080 | -49.50974 | 22262 ft | 374 kts | 318° |
| 2026-04-27 02:31 | 63.00984 | -49.54704 | 21991 ft | 362 kts | 318° |
| 2026-04-27 02:31 | 63.02850 | -49.58366 | 21709 ft | 358 kts | 318° |
| 2026-04-27 02:32 | 63.04702 | -49.62011 | 21550 ft | 353 kts | 318° |
| 2026-04-27 02:32 | 63.06493 | -49.65543 | 21508 ft | 338 kts | 318° |
| 2026-04-27 02:32 | 63.08220 | -49.68950 | 21150 ft | 330 kts | 318° |
| 2026-04-27 02:32 | 63.09923 | -49.72316 | 20684 ft | 327 kts | 318° |
| 2026-04-27 02:33 | 63.11615 | -49.75666 | 20133 ft | 326 kts | 318° |
| 2026-04-27 02:33 | 63.13296 | -49.78997 | 19544 ft | 325 kts | 318° |
| 2026-04-27 02:33 | 63.14955 | -49.82291 | 19097 ft | 323 kts | 318° |
| 2026-04-27 02:33 | 63.16610 | -49.85585 | 18885 ft | 311 kts | 318° |
| 2026-04-27 02:34 | 63.18197 | -49.88751 | 18399 ft | 312 kts | 318° |
| 2026-04-27 02:34 | 63.19818 | -49.91983 | 17926 ft | 316 kts | 318° |
| 2026-04-27 02:34 | 63.21460 | -49.95259 | 17511 ft | 318 kts | 318° |
| 2026-04-27 02:34 | 63.23099 | -49.98534 | 17096 ft | 317 kts | 318° |
| 2026-04-27 02:35 | 63.24733 | -50.01805 | 16712 ft | 315 kts | 318° |
| 2026-04-27 02:35 | 63.26354 | -50.05059 | 16320 ft | 313 kts | 318° |
| 2026-04-27 02:35 | 63.27965 | -50.08297 | 15900 ft | 311 kts | 318° |
| 2026-04-27 02:35 | 63.29567 | -50.11522 | 15526 ft | 310 kts | 318° |
| 2026-04-27 02:36 | 63.31121 | -50.14659 | 13800 ft | 309 kts | 317° |
| 2026-04-27 02:36 | 63.32741 | -50.17941 | 14947 ft | 316 kts | 319° |
| 2026-04-27 02:36 | 63.34327 | -50.21152 | 14904 ft | 302 kts | 319° |
| 2026-04-27 02:36 | 63.35869 | -50.24277 | 14399 ft | 299 kts | 319° |
| 2026-04-27 02:37 | 63.37413 | -50.27412 | 13861 ft | 301 kts | 319° |
| 2026-04-27 02:37 | 63.38954 | -50.30541 | 13292 ft | 300 kts | 320° |
| 2026-04-27 02:37 | 63.40491 | -50.33670 | 12786 ft | 297 kts | 320° |
| 2026-04-27 02:37 | 63.42001 | -50.36747 | 12393 ft | 292 kts | 320° |
| 2026-04-27 02:38 | 63.43500 | -50.39810 | 12028 ft | 292 kts | 320° |
| 2026-04-27 02:38 | 63.44999 | -50.42874 | 11642 ft | 291 kts | 320° |
| 2026-04-27 02:38 | 63.46486 | -50.45917 | 11254 ft | 289 kts | 320° |
| 2026-04-27 02:38 | 63.47968 | -50.48953 | 10884 ft | 289 kts | 320° |
| 2026-04-27 02:39 | 63.49436 | -50.52012 | 10593 ft | 287 kts | 318° |
| 2026-04-27 02:39 | 63.50828 | -50.55232 | 10521 ft | 289 kts | 316° |
| 2026-04-27 02:39 | 63.52204 | -50.58531 | 10475 ft | 290 kts | 315° |
| 2026-04-27 02:39 | 63.53562 | -50.61865 | 10356 ft | 289 kts | 315° |
| 2026-04-27 02:40 | 63.54875 | -50.65136 | 10225 ft | 273 kts | 315° |
| 2026-04-27 02:40 | 63.56085 | -50.68183 | 10078 ft | 254 kts | 314° |
| 2026-04-27 02:40 | 63.57265 | -50.71148 | 9797 ft | 256 kts | 314° |
| 2026-04-27 02:40 | 63.58453 | -50.74128 | 9523 ft | 255 kts | 315° |
| 2026-04-27 02:41 | 63.59628 | -50.77080 | 9277 ft | 252 kts | 315° |
| 2026-04-27 02:41 | 63.60801 | -50.80017 | 8992 ft | 253 kts | 316° |
| 2026-04-27 02:41 | 63.61976 | -50.82944 | 8795 ft | 251 kts | 316° |
| 2026-04-27 02:41 | 63.63111 | -50.85784 | 8677 ft | 240 kts | 316° |
| 2026-04-27 02:42 | 63.64220 | -50.88571 | 8307 ft | 238 kts | 317° |
| 2026-04-27 02:42 | 63.65331 | -50.91334 | 8088 ft | 238 kts | 317° |
| 2026-04-27 02:42 | 63.66410 | -50.94035 | 7869 ft | 239 kts | 316° |
| 2026-04-27 02:42 | 63.67509 | -50.96816 | 7591 ft | 236 kts | 316° |
| 2026-04-27 02:43 | 63.68594 | -50.99596 | 7352 ft | 235 kts | 316° |
| 2026-04-27 02:43 | 63.69674 | -51.02355 | 7117 ft | 234 kts | 317° |
| 2026-04-27 02:43 | 63.70760 | -51.05061 | 6873 ft | 232 kts | 316° |
| 2026-04-27 02:43 | 63.71830 | -51.07788 | 6607 ft | 232 kts | 316° |
| 2026-04-27 02:44 | 63.72904 | -51.10510 | 6367 ft | 232 kts | 316° |
| 2026-04-27 02:44 | 63.73977 | -51.13214 | 6117 ft | 231 kts | 317° |
| 2026-04-27 02:44 | 63.75042 | -51.15929 | 5905 ft | 232 kts | 316° |
| 2026-04-27 02:44 | 63.76113 | -51.18650 | 5658 ft | 232 kts | 317° |
| 2026-04-27 02:45 | 63.77208 | -51.21320 | 5418 ft | 231 kts | 319° |
| 2026-04-27 02:45 | 63.78329 | -51.23898 | 5138 ft | 229 kts | 320° |
| 2026-04-27 02:45 | 63.79479 | -51.26402 | 4924 ft | 230 kts | 321° |
| 2026-04-27 02:45 | 63.80657 | -51.28835 | 4676 ft | 229 kts | 323° |
| 2026-04-27 02:46 | 63.81866 | -51.31186 | 4422 ft | 228 kts | 325° |
| 2026-04-27 02:46 | 63.83101 | -51.33445 | 4185 ft | 228 kts | 326° |
| 2026-04-27 02:46 | 63.84328 | -51.35564 | 4111 ft | 214 kts | 327° |
| 2026-04-27 02:46 | 63.85501 | -51.37467 | 3905 ft | 201 kts | 329° |
| 2026-04-27 02:47 | 63.86624 | -51.39173 | 3994 ft | 187 kts | 329° |
| 2026-04-27 02:47 | 63.87644 | -51.40739 | 4039 ft | 170 kts | 329° |
| 2026-04-27 02:47 | 63.88615 | -51.42179 | 3847 ft | 164 kts | 331° |
| 2026-04-27 02:47 | 63.89555 | -51.43617 | 3635 ft | 160 kts | 329° |
| 2026-04-27 02:48 | 63.90432 | -51.45049 | 3501 ft | 151 kts | 329° |
| 2026-04-27 02:48 | 63.91263 | -51.46436 | 3233 ft | 149 kts | 330° |
| 2026-04-27 02:48 | 63.92112 | -51.47812 | 2917 ft | 150 kts | 330° |
| 2026-04-27 02:48 | 63.92909 | -51.49222 | 2789 ft | 140 kts | 326° |
| 2026-04-27 02:49 | 63.93628 | -51.50570 | 2734 ft | 127 kts | 328° |
| 2026-04-27 02:49 | 63.94335 | -51.51842 | 2670 ft | 145 kts | 328° |
| 2026-04-27 02:49 | 63.95210 | -51.53358 | 2596 ft | 164 kts | 328° |
| 2026-04-27 02:49 | 63.96097 | -51.54899 | 2584 ft | 154 kts | 328° |
| 2026-04-27 02:50 | 63.96907 | -51.56295 | 2553 ft | 139 kts | 329° |
| 2026-04-27 02:50 | 63.97635 | -51.57530 | 2522 ft | 124 kts | 330° |
| 2026-04-27 02:50 | 63.98283 | -51.58693 | 2451 ft | 111 kts | 327° |
| 2026-04-27 02:50 | 63.98863 | -51.59838 | 2356 ft | 121 kts | 326° |
| 2026-04-27 02:51 | 63.99605 | -51.61282 | 2392 ft | 161 kts | 327° |
| 2026-04-27 02:51 | 64.00555 | -51.62963 | 2528 ft | 185 kts | 329° |
| 2026-04-27 02:51 | 64.01643 | -51.64673 | 2730 ft | 189 kts | 330° |
| 2026-04-27 02:51 | 64.02667 | -51.66282 | 2797 ft | 168 kts | 330° |
| 2026-04-27 02:52 | 64.03580 | -51.67775 | 2832 ft | 160 kts | 329° |
| 2026-04-27 02:52 | 64.04525 | -51.69336 | 2941 ft | 179 kts | 329° |
| 2026-04-27 02:52 | 64.05575 | -51.71029 | 2898 ft | 179 kts | 330° |
| 2026-04-27 02:52 | 64.06604 | -51.72338 | 2708 ft | 162 kts | 341° |
| 2026-04-27 02:53 | 64.07654 | -51.73038 | 2376 ft | 154 kts | 349° |
| 2026-04-27 02:53 | 64.08665 | -51.73548 | 1988 ft | 144 kts | 349° |
| 2026-04-27 02:53 | 64.09618 | -51.74010 | 1610 ft | 134 kts | 350° |
| 2026-04-27 02:53 | 64.10490 | -51.74290 | 1340 ft | 120 kts | 357° |
| 2026-04-27 02:54 | 64.11260 | -51.74125 | 1206 ft | 105 kts | 11° |
| 2026-04-27 02:54 | 64.11944 | -51.73542 | 1160 ft | 109 kts | 15° |
| 2026-04-27 02:54 | 64.12659 | -51.72903 | 1139 ft | 109 kts | 16° |
| 2026-04-27 02:54 | 64.13357 | -51.72315 | 1210 ft | 107 kts | 17° |
| 2026-04-27 02:55 | 64.14005 | -51.71575 | 1176 ft | 99 kts | 13° |
| 2026-04-27 02:55 | 64.14728 | -51.71101 | 1037 ft | 109 kts | 10° |
| 2026-04-27 02:55 | 64.15439 | -51.70674 | 851 ft | 103 kts | 12° |
| 2026-04-27 02:55 | 64.16120 | -51.70141 | 748 ft | 106 kts | 14° |
| 2026-04-27 02:56 | 64.16856 | -51.69620 | 591 ft | 114 kts | 14° |
| 2026-04-27 02:56 | 64.17631 | -51.69017 | 415 ft | 119 kts | 15° |
| 2026-04-27 02:56 | 64.18407 | -51.68424 | 307 ft | 110 kts | 16° |
| 2026-04-27 02:56 | 64.19007 | -51.67986 | 296 ft | 66 kts | 18° |
| 2026-04-27 02:57 | 64.19230 | -51.67824 | 296 ft | 26 kts | 17° |
| 2026-04-27 02:57 | 64.19396 | -51.67696 | 295 ft | 18 kts | 18° |
| 2026-04-27 02:57 | 64.19509 | -51.67602 | 286 ft | 18 kts | 17° |
| 2026-04-27 02:57 | 64.19660 | -51.67495 | 288 ft | 23 kts | 17° |
| 2026-04-27 02:58 | 64.19825 | -51.67384 | 287 ft | 28 kts | 13° |
| 2026-04-27 02:58 | 64.19980 | -51.67352 | 285 ft | 12 kts | 28° |
| 2026-04-27 02:58 | 64.19986 | -51.67309 | 285 ft | 3 kts | 106° |
| 2026-04-27 02:58 | 64.19962 | -51.67299 | 285 ft | 4 kts | 187° |
| 2026-04-27 02:59 | 64.19870 | -51.67366 | 286 ft | 37 kts | 198° |
| 2026-04-27 02:59 | 64.19328 | -51.67766 | 291 ft | 123 kts | 198° |
| 2026-04-27 02:59 | 64.18310 | -51.68499 | 550 ft | 158 kts | 200° |
| 2026-04-27 02:59 | 64.17263 | -51.69428 | 877 ft | 169 kts | 228° |
| 2026-04-27 03:00 | 64.16625 | -51.71606 | 831 ft | 158 kts | 247° |
| 2026-04-27 03:00 | 64.15681 | -51.72780 | 990 ft | 175 kts | 169° |
| 2026-04-27 03:00 | 64.15048 | -51.71034 | 861 ft | 136 kts | 71° |
| 2026-04-27 03:00 | 64.15577 | -51.70098 | 857 ft | 96 kts | 5° |
| 2026-04-27 03:01 | 64.16307 | -51.69983 | 673 ft | 108 kts | 12° |
| 2026-04-27 03:01 | 64.17036 | -51.69451 | 551 ft | 113 kts | 14° |
| 2026-04-27 03:01 | 64.17763 | -51.68916 | 385 ft | 107 kts | 14° |
| 2026-04-27 03:01 | 64.18420 | -51.68431 | 303 ft | 95 kts | 14° |
| 2026-04-27 03:02 | 64.18952 | -51.68040 | 285 ft | 43 kts | 18° |
| 2026-04-27 03:02 | 64.19051 | -51.67966 | 287 ft | 10 kts | 18° |
| 2026-04-27 03:02 | 64.19105 | -51.67911 | 297 ft | 7 kts | 31° |